createdAt,value
2023-01-13T00:00:16.111Z,51.70
2023-01-13T00:02:43.307Z,52.92
2023-01-13T00:05:10.647Z,53.47
2023-01-13T00:07:40.056Z,55.15
2023-01-13T00:10:11.325Z,48.30
2023-01-13T00:12:42.456Z,52.10
2023-01-13T00:15:10.812Z,53.58
2023-01-13T00:17:38.879Z,38.13
2023-01-13T00:20:06.523Z,41.20
2023-01-13T00:22:34.984Z,48.22
2023-01-13T00:25:04.199Z,52.35
2023-01-13T00:27:31.587Z,48.05
2023-01-13T00:29:58.674Z,47.45
2023-01-13T00:32:26.008Z,43.30
2023-01-13T00:34:53.323Z,47.97
2023-01-13T00:37:20.320Z,45.45
2023-01-13T00:39:47.270Z,49.67
2023-01-13T00:42:32.565Z,43.33
2023-01-13T00:44:59.491Z,46.05
2023-01-13T00:47:26.312Z,43.05
2023-01-13T00:49:53.221Z,51.35
2023-01-13T00:52:20.128Z,38.40
2023-01-13T00:54:47.030Z,39.15
2023-01-13T00:57:15.343Z,40.03
2023-01-13T00:59:42.266Z,43.45
2023-01-13T01:02:09.188Z,50.10
2023-01-13T01:04:36.356Z,48.03
2023-01-13T01:07:03.264Z,51.97
2023-01-13T01:09:33.421Z,50.70
2023-01-13T01:12:00.889Z,46.13
2023-01-13T01:14:28.246Z,32.97
2023-01-13T01:16:55.100Z,36.60
2023-01-13T01:19:21.979Z,44.13
2023-01-13T01:21:48.905Z,40.25
2023-01-13T01:24:16.629Z,51.53
2023-01-13T01:26:43.875Z,41.67
2023-01-13T01:29:14.678Z,37.35
2023-01-13T01:31:41.872Z,37.47
2023-01-13T01:34:08.809Z,38.95
2023-01-13T01:36:36.630Z,43.67
2023-01-13T01:39:04.346Z,41.67
2023-01-13T01:41:33.778Z,53.08
2023-01-13T01:44:20.843Z,33.45
2023-01-13T01:46:47.773Z,37.83
2023-01-13T01:49:33.424Z,30.05
2023-01-13T01:52:08.829Z,26.48
2023-01-13T01:54:41.814Z,23.08
2023-01-13T01:57:11.292Z,28.88
2023-01-13T01:59:39.503Z,36.03
2023-01-13T02:02:07.149Z,31.13
2023-01-13T02:04:40.987Z,34.00
2023-01-13T02:07:08.498Z,38.10
2023-01-13T02:09:36.471Z,39.38
2023-01-13T02:12:21.993Z,36.13
2023-01-13T02:14:48.917Z,9.20
2023-01-13T02:17:42.626Z,7.90
2023-01-13T02:20:31.607Z,10.18
2023-01-13T02:23:55.096Z,8.75
2023-01-13T02:26:58.926Z,9.40
2023-01-13T02:30:03.457Z,8.63
2023-01-13T02:32:39.278Z,9.95
2023-01-13T02:36:04.469Z,6.97
2023-01-13T02:39:07.357Z,8.27
2023-01-13T02:42:25.310Z,15.35
2023-01-13T02:44:58.738Z,11.25
2023-01-13T02:47:26.992Z,16.17
2023-01-13T02:50:00.623Z,15.95
2023-01-13T02:52:38.355Z,17.35
2023-01-13T02:55:13.919Z,16.35
2023-01-13T02:57:41.944Z,11.82
2023-01-13T03:00:12.435Z,14.45
2023-01-13T03:02:39.876Z,15.88
2023-01-13T03:05:07.147Z,13.88
2023-01-13T03:08:01.402Z,11.88
2023-01-13T03:11:05.942Z,14.88
2023-01-13T03:14:22.510Z,15.82
2023-01-13T03:17:07.332Z,19.15
2023-01-13T03:19:55.188Z,19.08
2023-01-13T03:22:25.031Z,17.23
2023-01-13T03:25:00.457Z,15.95
2023-01-13T03:30:13.135Z,21.75
2023-01-13T03:32:45.378Z,20.25
2023-01-13T03:35:45.394Z,17.20
2023-01-13T03:38:21.769Z,28.00
2023-01-13T03:40:58.836Z,22.08
2023-01-13T03:43:53.934Z,21.33
2023-01-13T03:46:29.582Z,22.63
2023-01-13T03:48:58.685Z,25.70
2023-01-13T03:51:29.925Z,28.60
2023-01-13T03:54:02.769Z,27.48
2023-01-13T03:56:36.962Z,36.03
2023-01-13T03:59:08.102Z,31.73
2023-01-13T04:01:57.098Z,31.52
2023-01-13T04:04:43.879Z,25.70
2023-01-13T04:07:20.429Z,30.92
2023-01-13T04:09:54.645Z,32.45
2023-01-13T04:12:49.278Z,42.13
2023-01-13T04:15:30.143Z,20.98
2023-01-13T04:18:10.963Z,24.58
2023-01-13T04:20:40.093Z,29.50
2023-01-13T04:23:07.560Z,24.33
2023-01-13T04:25:34.495Z,20.45
2023-01-13T04:28:01.531Z,25.35
2023-01-13T04:30:28.505Z,28.02
2023-01-13T04:32:55.319Z,29.52
2023-01-13T04:35:22.373Z,35.20
2023-01-13T04:37:49.179Z,35.22
2023-01-13T04:40:16.498Z,36.80
2023-01-13T04:42:46.453Z,28.42
2023-01-13T04:45:14.222Z,27.95
2023-01-13T04:47:44.047Z,28.05
2023-01-13T04:50:11.918Z,24.02
2023-01-13T04:52:39.170Z,23.33
2023-01-13T04:55:07.199Z,31.35
2023-01-13T04:57:35.079Z,33.63
2023-01-13T05:00:02.182Z,31.05
2023-01-13T05:02:29.015Z,29.70
2023-01-13T05:04:55.973Z,19.15
2023-01-13T05:07:22.823Z,40.95
2023-01-13T05:09:49.838Z,31.92
2023-01-13T05:12:35.290Z,29.25
2023-01-13T05:15:20.651Z,28.67
2023-01-13T05:17:48.035Z,38.13
2023-01-13T05:20:14.933Z,28.25
2023-01-13T05:23:00.391Z,30.70
2023-01-13T05:25:28.156Z,24.45
2023-01-13T05:27:57.038Z,25.92
2023-01-13T05:30:26.773Z,35.03
2023-01-13T05:32:54.546Z,29.80
2023-01-13T05:35:21.548Z,30.70
2023-01-13T05:37:48.476Z,32.47
2023-01-13T05:40:36.853Z,38.28
2023-01-13T05:43:25.848Z,37.58
2023-01-13T05:46:03.676Z,32.50
2023-01-13T05:48:34.532Z,32.13
2023-01-13T05:51:02.685Z,28.17
2023-01-13T05:53:29.639Z,31.63
2023-01-13T05:55:56.832Z,44.90
2023-01-13T05:58:25.537Z,33.85
2023-01-13T06:00:52.995Z,39.63
2023-01-13T06:03:20.287Z,27.75
2023-01-13T06:05:47.909Z,29.33
2023-01-13T06:08:14.966Z,35.47
2023-01-13T06:10:42.197Z,28.92
2023-01-13T06:13:09.115Z,36.28
2023-01-13T06:15:36.065Z,31.27
2023-01-13T06:18:04.841Z,34.25
2023-01-13T06:20:32.452Z,33.78
2023-01-13T06:22:59.567Z,38.55
2023-01-13T06:25:32.444Z,44.85
2023-01-13T06:28:00.528Z,32.50
2023-01-13T06:30:30.982Z,34.42
2023-01-13T06:33:01.676Z,35.28
2023-01-13T06:35:32.578Z,31.23
2023-01-13T06:38:02.999Z,38.10
2023-01-13T06:40:30.473Z,29.33
2023-01-13T06:43:16.785Z,35.95
2023-01-13T06:45:53.121Z,41.50
2023-01-13T06:48:27.990Z,33.53
2023-01-13T06:50:55.023Z,40.97
2023-01-13T06:53:21.889Z,43.63
2023-01-13T06:55:48.818Z,41.53
2023-01-13T06:58:15.696Z,38.65
2023-01-13T07:00:42.710Z,47.22
2023-01-13T07:03:14.616Z,34.08
2023-01-13T07:05:50.646Z,40.13
2023-01-13T07:08:17.883Z,41.45
2023-01-13T07:10:44.729Z,35.85
2023-01-13T07:13:30.066Z,36.10
2023-01-13T07:16:02.288Z,31.98
2023-01-13T07:18:31.827Z,35.25
2023-01-13T07:21:01.163Z,38.50
2023-01-13T07:23:29.911Z,39.25
2023-01-13T07:25:57.971Z,38.38
2023-01-13T07:28:25.785Z,41.25
2023-01-13T07:30:52.804Z,39.72
2023-01-13T07:33:20.034Z,41.00
2023-01-13T07:35:48.096Z,40.13
2023-01-13T07:38:15.834Z,31.80
2023-01-13T07:40:42.947Z,32.72
2023-01-13T07:43:30.783Z,35.65
2023-01-13T07:46:04.683Z,37.92
2023-01-13T07:48:33.374Z,34.63
2023-01-13T07:51:05.762Z,38.63
2023-01-13T07:53:33.464Z,32.15
2023-01-13T07:56:01.947Z,39.83
2023-01-13T07:58:29.263Z,36.20
2023-01-13T08:00:56.545Z,36.58
2023-01-13T08:03:24.032Z,31.95
2023-01-13T08:05:51.320Z,32.05
2023-01-13T08:08:18.751Z,36.65
2023-01-13T08:10:45.801Z,30.92
2023-01-13T08:13:20.256Z,28.70
2023-01-13T08:15:50.113Z,26.30
2023-01-13T08:18:20.936Z,28.55
2023-01-13T08:20:54.435Z,43.85
2023-01-13T08:23:22.673Z,32.60
2023-01-13T08:25:49.944Z,24.10
2023-01-13T08:28:17.632Z,33.35
2023-01-13T08:30:44.662Z,26.83
2023-01-13T08:33:13.167Z,24.23
2023-01-13T08:35:41.589Z,27.35
2023-01-13T08:38:09.021Z,22.45
2023-01-13T08:40:36.105Z,32.97
2023-01-13T08:43:03.198Z,29.58
2023-01-13T08:45:30.111Z,29.15
2023-01-13T08:47:57.015Z,25.95
2023-01-13T08:50:24.176Z,29.27
2023-01-13T08:52:51.157Z,28.35
2023-01-13T08:55:18.026Z,27.90
2023-01-13T08:57:45.033Z,32.13
2023-01-13T09:00:13.204Z,32.05
2023-01-13T09:02:40.638Z,40.60
2023-01-13T09:05:08.392Z,24.60
2023-01-13T09:07:37.081Z,22.90
2023-01-13T09:10:06.412Z,32.30
2023-01-13T09:12:51.817Z,29.90
2023-01-13T09:15:19.030Z,25.40
2023-01-13T09:17:46.313Z,29.52
2023-01-13T09:20:13.974Z,23.77
2023-01-13T09:22:41.478Z,27.88
2023-01-13T09:25:08.985Z,32.63
2023-01-13T09:27:36.206Z,29.63
2023-01-13T09:30:03.753Z,27.30
2023-01-13T09:32:30.651Z,26.63
2023-01-13T09:35:00.304Z,30.67
2023-01-13T09:37:45.862Z,27.02
2023-01-13T09:40:20.131Z,34.78
2023-01-13T09:43:09.573Z,29.60
2023-01-13T09:45:50.373Z,30.05
2023-01-13T09:48:52.871Z,30.27
2023-01-13T09:51:31.805Z,23.77
2023-01-13T09:54:33.685Z,36.05
2023-01-13T09:57:01.019Z,23.38
2023-01-13T09:59:32.601Z,37.22
2023-01-13T10:02:22.762Z,25.75
2023-01-13T10:05:13.626Z,33.47
2023-01-13T10:07:49.608Z,32.75
2023-01-13T10:10:33.737Z,32.22
2023-01-13T10:13:20.013Z,30.85
2023-01-13T10:16:05.051Z,24.30
2023-01-13T10:18:55.480Z,38.17
2023-01-13T10:21:52.401Z,31.20
2023-01-13T10:24:22.067Z,34.80
2023-01-13T10:27:18.011Z,26.80
2023-01-13T10:29:44.893Z,25.63
2023-01-13T10:32:11.757Z,29.25
2023-01-13T10:34:52.276Z,23.42
2023-01-13T10:37:27.596Z,24.48
2023-01-13T10:39:56.247Z,31.17
2023-01-13T10:42:25.402Z,20.58
2023-01-13T10:44:53.974Z,21.10
2023-01-13T10:47:35.772Z,31.17
2023-01-13T10:50:09.634Z,25.83
2023-01-13T10:52:42.794Z,21.10
2023-01-13T10:55:27.381Z,23.25
2023-01-13T10:57:54.356Z,25.05
2023-01-13T11:00:32.963Z,31.15
2023-01-13T11:03:12.422Z,27.77
2023-01-13T11:05:39.428Z,24.08
2023-01-13T11:08:17.713Z,23.42
2023-01-13T11:10:47.025Z,20.40
2023-01-13T11:13:22.325Z,24.25
2023-01-13T11:15:59.026Z,29.75
2023-01-13T11:18:41.027Z,22.48
2023-01-13T11:21:23.064Z,29.58
2023-01-13T11:24:07.295Z,21.88
2023-01-13T11:26:56.860Z,32.60
2023-01-13T11:29:55.701Z,25.02
2023-01-13T11:32:24.697Z,22.60
2023-01-13T11:34:59.506Z,25.13
2023-01-13T11:37:27.763Z,18.25
2023-01-13T11:40:16.549Z,22.48
2023-01-13T11:42:50.990Z,28.63
2023-01-13T11:45:17.881Z,22.05
2023-01-13T11:47:52.099Z,39.78
2023-01-13T11:50:24.995Z,33.55
2023-01-13T11:53:18.989Z,28.48
2023-01-13T11:56:25.055Z,29.58
2023-01-13T11:58:54.984Z,28.77
2023-01-13T12:01:27.950Z,22.95
2023-01-13T12:04:28.155Z,25.88
2023-01-13T12:07:22.991Z,25.23
2023-01-13T12:10:17.636Z,26.33
2023-01-13T12:13:08.831Z,32.15
2023-01-13T12:15:44.554Z,33.47
2023-01-13T12:18:45.668Z,30.27
2023-01-13T12:21:18.919Z,32.47
2023-01-13T12:23:56.070Z,28.38
2023-01-13T12:26:23.670Z,28.13
2023-01-13T12:28:50.622Z,34.30
2023-01-13T12:31:19.566Z,26.42
2023-01-13T12:33:55.262Z,37.20
2023-01-13T12:36:40.389Z,34.45
2023-01-13T12:39:44.465Z,28.70
2023-01-13T12:42:36.214Z,30.45
2023-01-13T12:45:06.060Z,30.73
2023-01-13T12:47:36.336Z,33.25
2023-01-13T12:50:22.108Z,25.40
2023-01-13T12:52:50.563Z,31.08
2023-01-13T12:55:42.488Z,27.02
2023-01-13T12:58:09.403Z,24.65
2023-01-13T13:01:00.861Z,36.20
2023-01-13T13:03:31.469Z,23.58
2023-01-13T13:06:10.599Z,37.38
2023-01-13T13:09:04.520Z,31.90
2023-01-13T13:11:57.579Z,27.33
2023-01-13T13:14:39.872Z,22.83
2023-01-13T13:17:28.606Z,31.38
2023-01-13T13:20:00.197Z,26.17
2023-01-13T13:22:27.114Z,31.58
2023-01-13T13:24:59.714Z,26.77
2023-01-13T13:27:42.384Z,31.55
2023-01-13T13:30:22.277Z,40.92
2023-01-13T13:33:10.687Z,38.85
2023-01-13T13:36:02.791Z,31.92
2023-01-13T13:39:10.298Z,23.17
2023-01-13T13:42:04.030Z,30.67
2023-01-13T13:44:59.307Z,33.85
2023-01-13T13:47:34.328Z,28.20
2023-01-13T13:50:07.380Z,27.40
2023-01-13T13:52:40.394Z,27.73
2023-01-13T13:55:27.714Z,28.92
2023-01-13T13:57:57.394Z,33.13
2023-01-13T14:00:28.113Z,22.00
2023-01-13T14:03:00.502Z,35.92
2023-01-13T14:05:32.751Z,30.70
2023-01-13T14:08:02.484Z,23.90
2023-01-13T14:10:36.947Z,28.58
2023-01-13T14:13:25.045Z,22.52
2023-01-13T14:16:03.993Z,23.23
2023-01-13T14:18:34.613Z,28.27
2023-01-13T14:21:18.468Z,31.27
2023-01-13T14:24:10.592Z,32.03
2023-01-13T14:26:37.904Z,25.52
2023-01-13T14:29:04.948Z,23.35
2023-01-13T14:31:32.806Z,30.98
2023-01-13T14:34:02.918Z,24.45
2023-01-13T14:36:54.104Z,25.13
2023-01-13T14:39:26.017Z,32.28
2023-01-13T14:41:53.421Z,32.53
2023-01-13T14:44:27.188Z,28.52
2023-01-13T14:47:00.490Z,32.92
2023-01-13T14:49:51.531Z,29.40
2023-01-13T14:52:23.031Z,20.80
2023-01-13T14:55:08.262Z,31.80
2023-01-13T14:57:37.114Z,23.67
2023-01-13T15:00:16.190Z,24.15
2023-01-13T15:02:58.526Z,24.08
2023-01-13T15:05:32.121Z,31.98
2023-01-13T15:07:59.370Z,20.27
2023-01-13T15:10:30.713Z,33.08
2023-01-13T15:12:59.933Z,27.10
2023-01-13T15:15:39.471Z,27.85
2023-01-13T15:18:14.238Z,21.90
2023-01-13T15:20:42.001Z,28.23
2023-01-13T15:23:09.271Z,23.25
2023-01-13T15:25:41.108Z,33.30
2023-01-13T15:28:18.950Z,22.23
2023-01-13T15:30:46.459Z,29.65
2023-01-13T15:33:14.544Z,25.85
2023-01-13T15:35:44.853Z,28.05
2023-01-13T15:38:13.624Z,31.80
2023-01-13T15:40:41.478Z,28.83
2023-01-13T15:43:35.498Z,34.90
2023-01-13T15:46:37.834Z,38.58
2023-01-13T15:49:18.816Z,35.25
2023-01-13T15:51:45.716Z,29.00
2023-01-13T15:54:12.983Z,30.88
2023-01-13T15:56:42.018Z,32.75
2023-01-13T15:59:18.558Z,28.52
2023-01-13T16:01:46.519Z,29.83
2023-01-13T16:04:13.505Z,24.10
2023-01-13T16:06:40.952Z,41.28
2023-01-13T16:09:07.888Z,23.98
2023-01-13T16:11:34.804Z,26.23
2023-01-13T16:14:01.656Z,24.05
2023-01-13T16:16:29.673Z,22.35
2023-01-13T16:18:57.163Z,27.90
2023-01-13T16:21:24.978Z,27.40
2023-01-13T16:23:52.427Z,30.60
2023-01-13T16:26:29.172Z,22.88
2023-01-13T16:28:57.413Z,26.05
2023-01-13T16:31:33.056Z,22.58
2023-01-13T16:34:02.143Z,22.15
2023-01-13T16:36:34.241Z,24.10
2023-01-13T16:39:01.972Z,25.55
2023-01-13T16:41:28.912Z,22.40
2023-01-13T16:43:55.848Z,26.13
2023-01-13T16:46:28.053Z,26.23
2023-01-13T16:48:58.046Z,34.00
2023-01-13T16:51:25.099Z,32.17
2023-01-13T16:53:52.203Z,18.70
2023-01-13T16:56:33.815Z,21.65
2023-01-13T16:59:08.579Z,25.17
2023-01-13T17:01:38.349Z,26.63
2023-01-13T17:04:05.864Z,27.48
2023-01-13T17:06:39.506Z,19.63
2023-01-13T17:09:12.535Z,23.73
2023-01-13T17:11:39.784Z,30.10
2023-01-13T17:14:15.879Z,25.85
2023-01-13T17:16:46.427Z,34.70
2023-01-13T17:19:13.635Z,25.15
2023-01-13T17:21:40.866Z,23.55
2023-01-13T17:24:08.070Z,30.92
2023-01-13T17:26:48.834Z,24.58
2023-01-13T17:29:22.397Z,27.98
2023-01-13T17:31:50.586Z,18.95
2023-01-13T17:34:17.886Z,20.67
2023-01-13T17:36:44.833Z,23.38
2023-01-13T17:39:20.493Z,27.85
2023-01-13T17:41:47.999Z,27.92
2023-01-13T17:44:16.336Z,31.73
2023-01-13T17:46:43.705Z,22.90
2023-01-13T17:49:15.643Z,26.27
2023-01-13T17:51:43.010Z,26.77
2023-01-13T17:54:12.310Z,27.80
2023-01-13T17:56:40.400Z,23.35
2023-01-13T17:59:10.195Z,19.92
2023-01-13T18:01:38.523Z,18.40
2023-01-13T18:04:06.929Z,23.65
2023-01-13T18:06:34.226Z,22.17
2023-01-13T18:09:01.465Z,18.27
2023-01-13T18:11:28.686Z,14.00
2023-01-13T18:13:57.088Z,19.88
2023-01-13T18:16:25.616Z,20.55
2023-01-13T18:19:15.212Z,19.65
2023-01-13T18:22:00.779Z,20.70
2023-01-13T18:24:46.527Z,19.70
2023-01-13T18:27:23.802Z,21.98
2023-01-13T18:29:57.358Z,21.75
2023-01-13T18:32:29.805Z,17.30
2023-01-13T18:35:05.813Z,29.25
2023-01-13T18:37:36.037Z,19.67
2023-01-13T18:40:04.438Z,32.45
2023-01-13T18:42:49.955Z,21.17
2023-01-13T18:45:21.814Z,24.40
2023-01-13T18:47:48.769Z,23.92
2023-01-13T18:50:17.155Z,24.55
2023-01-13T18:52:44.822Z,22.40
2023-01-13T18:55:11.694Z,24.60
2023-01-13T18:57:41.265Z,25.35
2023-01-13T19:00:10.430Z,26.30
2023-01-13T19:02:37.558Z,30.45
2023-01-13T19:05:04.918Z,33.65
2023-01-13T19:07:34.786Z,27.48
2023-01-13T19:10:04.252Z,24.55
2023-01-13T19:12:31.376Z,22.85
2023-01-13T19:14:59.169Z,27.52
2023-01-13T19:17:29.879Z,24.15
2023-01-13T19:20:00.126Z,24.88
2023-01-13T19:22:30.960Z,21.98
2023-01-13T19:24:58.650Z,26.00
2023-01-13T19:27:27.549Z,16.63
2023-01-13T19:29:58.199Z,21.55
2023-01-13T19:32:26.074Z,24.92
2023-01-13T19:34:55.020Z,21.23
2023-01-13T19:37:21.947Z,21.98
2023-01-13T19:39:48.791Z,24.48
2023-01-13T19:42:34.380Z,16.83
2023-01-13T19:45:19.761Z,28.05
2023-01-13T19:47:47.069Z,22.75
2023-01-13T19:50:14.674Z,31.55
2023-01-13T19:52:44.793Z,28.77
2023-01-13T19:55:12.641Z,25.80
2023-01-13T19:57:43.477Z,32.55
2023-01-13T20:00:14.036Z,30.55
2023-01-13T20:02:47.662Z,19.30
2023-01-13T20:05:21.022Z,19.40
2023-01-13T20:07:49.514Z,24.75
2023-01-13T20:10:17.949Z,28.23
2023-01-13T20:12:44.955Z,24.67
2023-01-13T20:15:11.839Z,22.73
2023-01-13T20:17:38.764Z,18.02
2023-01-13T20:20:06.192Z,27.63
2023-01-13T20:22:33.115Z,18.60
2023-01-13T20:24:59.947Z,31.25
2023-01-13T20:27:26.902Z,26.13
2023-01-13T20:29:53.697Z,20.45
2023-01-13T20:32:20.687Z,24.38
2023-01-13T20:34:47.550Z,31.63
2023-01-13T20:37:14.414Z,30.00
2023-01-13T20:39:45.048Z,26.25
2023-01-13T20:42:29.989Z,33.83
2023-01-13T20:44:57.701Z,17.53
2023-01-13T20:47:27.435Z,21.25
2023-01-13T20:49:54.678Z,24.30
2023-01-13T20:52:21.772Z,29.98
2023-01-13T20:54:48.658Z,24.38
2023-01-13T20:57:15.630Z,27.20
2023-01-13T20:59:42.638Z,23.25
2023-01-13T21:02:14.286Z,19.55
2023-01-13T21:04:41.650Z,22.73
2023-01-13T21:07:08.839Z,21.20
2023-01-13T21:09:36.482Z,18.98
2023-01-13T21:12:22.466Z,20.92
2023-01-13T21:15:07.910Z,23.48
2023-01-13T21:17:53.372Z,29.38
2023-01-13T21:20:20.318Z,23.05
2023-01-13T21:22:48.765Z,27.65
2023-01-13T21:25:16.842Z,24.23
2023-01-13T21:27:46.564Z,22.38
2023-01-13T21:30:15.438Z,23.42
2023-01-13T21:32:44.099Z,26.67
2023-01-13T21:35:11.891Z,26.80
2023-01-13T21:37:40.649Z,25.88
2023-01-13T21:40:10.188Z,22.90
2023-01-13T21:42:55.655Z,31.73
2023-01-13T21:45:41.713Z,19.73
2023-01-13T21:48:08.782Z,31.02
2023-01-13T21:50:38.161Z,30.17
2023-01-13T21:53:05.431Z,30.08
2023-01-13T21:55:32.886Z,16.83
2023-01-13T21:58:01.160Z,27.35
2023-01-13T22:00:30.534Z,24.25
2023-01-13T22:02:58.619Z,23.25
2023-01-13T22:05:26.197Z,22.10
2023-01-13T22:07:53.275Z,22.90
2023-01-13T22:10:22.469Z,21.70
2023-01-13T22:12:53.240Z,21.88
2023-01-13T22:15:20.516Z,27.35
2023-01-13T22:17:52.148Z,30.38
2023-01-13T22:20:19.731Z,37.90
2023-01-13T22:22:46.966Z,23.20
2023-01-13T22:25:15.903Z,31.13
2023-01-13T22:27:44.449Z,26.83
2023-01-13T22:30:15.637Z,23.92
2023-01-13T22:32:42.707Z,18.58
2023-01-13T22:35:12.142Z,24.35
2023-01-13T22:37:39.126Z,23.77
2023-01-13T22:40:07.911Z,32.78
2023-01-13T22:42:39.339Z,30.13
2023-01-13T22:45:10.410Z,20.83
2023-01-13T22:47:37.515Z,21.15
2023-01-13T22:50:05.614Z,30.88
2023-01-13T22:52:34.224Z,24.50
2023-01-13T22:55:01.567Z,27.25
2023-01-13T22:57:46.727Z,32.97
2023-01-13T23:00:14.990Z,20.23
2023-01-13T23:02:42.153Z,26.40
2023-01-13T23:05:09.255Z,23.52
2023-01-13T23:07:36.240Z,26.25
2023-01-13T23:10:04.604Z,23.42
2023-01-13T23:12:31.427Z,27.20
2023-01-13T23:14:58.316Z,24.33
2023-01-13T23:17:25.186Z,32.03
2023-01-13T23:19:52.157Z,27.58
2023-01-13T23:22:18.984Z,27.15
2023-01-13T23:24:46.307Z,21.80
2023-01-13T23:27:13.227Z,26.25
2023-01-13T23:29:40.303Z,36.53
2023-01-13T23:32:07.177Z,30.25
2023-01-13T23:34:34.024Z,30.70
2023-01-13T23:37:00.820Z,28.60
2023-01-13T23:39:27.775Z,36.65
2023-01-13T23:41:54.890Z,27.98
2023-01-13T23:44:21.906Z,25.05
2023-01-13T23:46:48.922Z,32.72
2023-01-13T23:49:15.882Z,28.80
2023-01-13T23:51:42.745Z,33.75
2023-01-13T23:54:09.915Z,27.50
2023-01-13T23:56:39.558Z,28.35
2023-01-13T23:59:06.905Z,23.35
